الصفحة الرئيسية
METAR-TAF:

METAR-TAF

مطار :

Paraburdoo, أستراليا

دائرة عرض: 23-10-17S, خط طول: 117-44-44E, ارتفاع: 429 متر

مراقبة الطقس الحالي

تاريخ ووقت الإصدار 1ساعة و 4 دقيقة قبل الساعة 18:00UTC
ريح 5 عقدة من الغرب
درجة الحرارة 29°درجة مئوية
الرطوبة 55%
ضغط 1009 hPa
الرؤية 10 كم أو أكثر

METAR: YPBO 081800Z AUTO 27005KT 9999 // NCD 29/19 Q1009

زمن: 03:04 (19:04 UTC)


TAF: مفقودة

أرصاد الطقس والتوقعات من أكثر من 4000 مطار (تقارير الطقس للمطار METAR والتنبؤ بالطقس بالمطارTAF).

المحطات المتاحة هي النقط الصفراء والحمراء على الخريطة.

حرك المؤشر فوق النقطة لمعرفة اسم المحطة.

ثم انقر لمعرفة أرصاد وتوقعات الطقس.

لتغيير الخارطة: اضغط على الأزرار الخضراء مع رمز الصليب الأسود للتكبير. على الزر الأخضر مع شرطة للتصغير، أو على الأسهم الخضراء للخرائط المجاورة.


METAR-TAF: